sensor_id;sensor_type;location;lat;lon;timestamp;pressure;altitude;pressure_sealevel;temperature;humidity
28935;BME280;16044;52.726;-2.108;2023-05-03T00:00:44;101782.53;;;9.99;92.89
28935;BME280;16044;52.726;-2.108;2023-05-03T00:03:11;101788.94;;;9.98;93.00
28935;BME280;16044;52.726;-2.108;2023-05-03T00:05:39;101788.94;;;9.98;93.33
28935;BME280;16044;52.726;-2.108;2023-05-03T00:08:06;101797.94;;;9.98;93.06
28935;BME280;16044;52.726;-2.108;2023-05-03T00:10:33;101806.06;;;9.98;93.29
28935;BME280;16044;52.726;-2.108;2023-05-03T00:13:00;101805.47;;;9.94;93.77
28935;BME280;16044;52.726;-2.108;2023-05-03T00:15:27;101799.38;;;10.02;93.47
28935;BME280;16044;52.726;-2.108;2023-05-03T00:17:54;101798.66;;;10.00;93.43
28935;BME280;16044;52.726;-2.108;2023-05-03T00:20:21;101803.75;;;10.03;93.07
28935;BME280;16044;52.726;-2.108;2023-05-03T00:22:48;101804.47;;;10.05;92.93
28935;BME280;16044;52.726;-2.108;2023-05-03T00:25:15;101803.63;;;10.05;93.28
28935;BME280;16044;52.726;-2.108;2023-05-03T00:27:42;101799.22;;;10.04;92.88
28935;BME280;16044;52.726;-2.108;2023-05-03T00:30:10;101806.78;;;10.10;92.76
28935;BME280;16044;52.726;-2.108;2023-05-03T00:32:37;101807.63;;;10.01;93.33
28935;BME280;16044;52.726;-2.108;2023-05-03T00:35:04;101801.91;;;9.94;93.97
28935;BME280;16044;52.726;-2.108;2023-05-03T00:37:32;101803.19;;;10.00;93.40
28935;BME280;16044;52.726;-2.108;2023-05-03T00:39:59;101799.22;;;10.04;92.98
28935;BME280;16044;52.726;-2.108;2023-05-03T00:42:26;101804.19;;;9.99;93.04
28935;BME280;16044;52.726;-2.108;2023-05-03T00:44:53;101801.19;;;10.02;92.89
28935;BME280;16044;52.726;-2.108;2023-05-03T00:47:21;101799.75;;;9.98;92.88
28935;BME280;16044;52.726;-2.108;2023-05-03T00:49:48;101804.91;;;10.01;92.61
28935;BME280;16044;52.726;-2.108;2023-05-03T00:52:15;101809.31;;;10.02;92.54
28935;BME280;16044;52.726;-2.108;2023-05-03T00:54:42;101807.88;;;9.98;92.79
28935;BME280;16044;52.726;-2.108;2023-05-03T00:57:09;101805.19;;;9.98;92.70
28935;BME280;16044;52.726;-2.108;2023-05-03T00:59:37;101794.34;;;9.98;92.55
28935;BME280;16044;52.726;-2.108;2023-05-03T01:02:04;101790.66;;;9.99;92.75
28935;BME280;16044;52.726;-2.108;2023-05-03T01:04:32;101786.09;;;9.99;92.55
28935;BME280;16044;52.726;-2.108;2023-05-03T01:09:44;101774.22;;;9.90;92.38
28935;BME280;16044;52.726;-2.108;2023-05-03T01:15:20;101767.97;;;9.80;92.09
28935;BME280;16044;52.726;-2.108;2023-05-03T01:18:01;101759.13;;;9.78;91.90
28935;BME280;16044;52.726;-2.108;2023-05-03T01:20:41;101760.28;;;9.75;91.75
28935;BME280;16044;52.726;-2.108;2023-05-03T01:23:14;101758.09;;;9.69;91.66
28935;BME280;16044;52.726;-2.108;2023-05-03T01:25:50;101753.56;;;9.70;91.13
28935;BME280;16044;52.726;-2.108;2023-05-03T01:28:18;101757.53;;;9.66;91.42
28935;BME280;16044;52.726;-2.108;2023-05-03T01:30:46;101752.41;;;9.63;91.14
28935;BME280;16044;52.726;-2.108;2023-05-03T01:38:39;101737.81;;;9.44;91.44
28935;BME280;16044;52.726;-2.108;2023-05-03T01:41:09;101727.00;;;9.44;90.93
28935;BME280;16044;52.726;-2.108;2023-05-03T01:43:39;101714.31;;;9.35;91.15
28935;BME280;16044;52.726;-2.108;2023-05-03T01:46:06;101716.13;;;9.25;91.44
28935;BME280;16044;52.726;-2.108;2023-05-03T01:48:33;101712.00;;;9.21;91.08
28935;BME280;16044;52.726;-2.108;2023-05-03T01:51:00;101709.81;;;9.14;91.48
28935;BME280;16044;52.726;-2.108;2023-05-03T01:53:27;101716.06;;;9.05;91.69
28935;BME280;16044;52.726;-2.108;2023-05-03T01:55:54;101720.63;;;9.05;91.27
28935;BME280;16044;52.726;-2.108;2023-05-03T01:58:21;101721.03;;;9.00;91.51
28935;BME280;16044;52.726;-2.108;2023-05-03T02:00:48;101723.41;;;8.93;91.74
28935;BME280;16044;52.726;-2.108;2023-05-03T02:03:15;101725.66;;;8.88;92.01
28935;BME280;16044;52.726;-2.108;2023-05-03T02:05:42;101734.78;;;8.87;91.82
28935;BME280;16044;52.726;-2.108;2023-05-03T02:08:09;101728.91;;;8.82;92.27
28935;BME280;16044;52.726;-2.108;2023-05-03T02:10:36;101743.28;;;8.83;92.26
28935;BME280;16044;52.726;-2.108;2023-05-03T02:13:03;101742.56;;;8.81;92.09
28935;BME280;16044;52.726;-2.108;2023-05-03T02:15:30;101738.16;;;8.80;92.04
28935;BME280;16044;52.726;-2.108;2023-05-03T02:17:57;101748.97;;;8.80;92.00
28935;BME280;16044;52.726;-2.108;2023-05-03T02:20:24;101756.38;;;8.77;92.15
28935;BME280;16044;52.726;-2.108;2023-05-03T02:22:51;101756.06;;;8.81;91.74
28935;BME280;16044;52.726;-2.108;2023-05-03T02:25:18;101765.06;;;8.81;91.65
28935;BME280;16044;52.726;-2.108;2023-05-03T02:27:45;101758.94;;;8.79;91.72
28935;BME280;16044;52.726;-2.108;2023-05-03T02:30:12;101758.94;;;8.79;91.47
28935;BME280;16044;52.726;-2.108;2023-05-03T02:32:39;101758.34;;;8.75;91.38
28935;BME280;16044;52.726;-2.108;2023-05-03T02:35:06;101764.00;;;8.72;91.68
28935;BME280;16044;52.726;-2.108;2023-05-03T02:37:34;101767.56;;;8.73;91.68
28935;BME280;16044;52.726;-2.108;2023-05-03T02:40:01;101768.69;;;8.70;91.92
28935;BME280;16044;52.726;-2.108;2023-05-03T02:42:28;101776.69;;;8.72;91.52
28935;BME280;16044;52.726;-2.108;2023-05-03T02:44:55;101777.41;;;8.74;91.42
28935;BME280;16044;52.726;-2.108;2023-05-03T02:47:22;101772.84;;;8.74;91.32
28935;BME280;16044;52.726;-2.108;2023-05-03T02:49:49;101783.66;;;8.74;91.26
28935;BME280;16044;52.726;-2.108;2023-05-03T02:52:16;101781.97;;;8.73;90.93
28935;BME280;16044;52.726;-2.108;2023-05-03T02:54:43;101783.78;;;8.73;91.32
28935;BME280;16044;52.726;-2.108;2023-05-03T02:57:10;101771.16;;;8.73;91.07
28935;BME280;16044;52.726;-2.108;2023-05-03T02:59:37;101777.66;;;8.71;90.98
28935;BME280;16044;52.726;-2.108;2023-05-03T03:02:04;101777.78;;;8.69;90.97
28935;BME280;16044;52.726;-2.108;2023-05-03T03:04:31;101772.91;;;8.63;91.06
28935;BME280;16044;52.726;-2.108;2023-05-03T03:06:58;101767.91;;;8.58;91.16
28935;BME280;16044;52.726;-2.108;2023-05-03T03:09:25;101764.50;;;8.56;91.14
28935;BME280;16044;52.726;-2.108;2023-05-03T03:11:52;101766.97;;;8.48;91.43
28935;BME280;16044;52.726;-2.108;2023-05-03T03:14:19;101772.06;;;8.42;91.52
28935;BME280;16044;52.726;-2.108;2023-05-03T03:16:49;101762.72;;;8.34;91.61
28935;BME280;16044;52.726;-2.108;2023-05-03T03:19:17;101764.59;;;8.34;91.20
28935;BME280;16044;52.726;-2.108;2023-05-03T03:21:43;101764.00;;;8.30;91.30
28935;BME280;16044;52.726;-2.108;2023-05-03T03:24:10;101758.84;;;8.27;91.53
28935;BME280;16044;52.726;-2.108;2023-05-03T03:26:37;101763.03;;;8.20;92.00
28935;BME280;16044;52.726;-2.108;2023-05-03T03:29:04;101763.03;;;8.20;91.85
28935;BME280;16044;52.726;-2.108;2023-05-03T03:31:31;101755.22;;;8.17;91.79
28935;BME280;16044;52.726;-2.108;2023-05-03T03:33:58;101758.16;;;8.14;92.00
28935;BME280;16044;52.726;-2.108;2023-05-03T03:36:25;101758.16;;;8.14;91.72
28935;BME280;16044;52.726;-2.108;2023-05-03T03:38:53;101746.63;;;8.12;91.89
28935;BME280;16044;52.726;-2.108;2023-05-03T03:41:20;101746.16;;;8.07;91.95
28935;BME280;16044;52.726;-2.108;2023-05-03T03:43:47;101743.00;;;8.02;92.07
28935;BME280;16044;52.726;-2.108;2023-05-03T03:46:15;101749.50;;;7.99;92.02
28935;BME280;16044;52.726;-2.108;2023-05-03T03:48:43;101746.47;;;7.92;92.25
28935;BME280;16044;52.726;-2.108;2023-05-03T03:51:09;101744.75;;;7.91;92.16
28935;BME280;16044;52.726;-2.108;2023-05-03T03:53:37;101744.03;;;7.89;92.19
28935;BME280;16044;52.726;-2.108;2023-05-03T03:56:04;101746.00;;;7.87;92.32
28935;BME280;16044;52.726;-2.108;2023-05-03T03:58:31;101748.22;;;7.82;92.53
28935;BME280;16044;52.726;-2.108;2023-05-03T04:00:58;101740.13;;;7.82;92.39
28935;BME280;16044;52.726;-2.108;2023-05-03T04:03:26;101745.78;;;7.79;92.20
28935;BME280;16044;52.726;-2.108;2023-05-03T04:05:53;101739.91;;;7.74;92.46
28935;BME280;16044;52.726;-2.108;2023-05-03T04:08:20;101742.84;;;7.71;92.52
28935;BME280;16044;52.726;-2.108;2023-05-03T04:10:47;101742.97;;;7.69;92.51
28935;BME280;16044;52.726;-2.108;2023-05-03T04:13:14;101749.63;;;7.65;92.66
28935;BME280;16044;52.726;-2.108;2023-05-03T04:15:40;101741.53;;;7.65;92.67
28935;BME280;16044;52.726;-2.108;2023-05-03T04:18:07;101741.63;;;7.64;92.76
28935;BME280;16044;52.726;-2.108;2023-05-03T04:20:34;101749.50;;;7.67;92.75
28935;BME280;16044;52.726;-2.108;2023-05-03T04:23:02;101746.56;;;7.70;92.58
28935;BME280;16044;52.726;-2.108;2023-05-03T04:25:29;101750.84;;;7.72;92.55
28935;BME280;16044;52.726;-2.108;2023-05-03T04:27:58;101746.44;;;7.71;92.66
28935;BME280;16044;52.726;-2.108;2023-05-03T04:30:25;101756.09;;;7.74;92.49
28935;BME280;16044;52.726;-2.108;2023-05-03T04:32:52;101755.09;;;7.75;92.55
28935;BME280;16044;52.726;-2.108;2023-05-03T04:35:20;101745.91;;;7.77;92.23
28935;BME280;16044;52.726;-2.108;2023-05-03T04:37:47;101744.31;;;7.75;92.31
28935;BME280;16044;52.726;-2.108;2023-05-03T04:40:13;101752.16;;;7.78;92.16
28935;BME280;16044;52.726;-2.108;2023-05-03T04:42:42;101747.63;;;7.78;91.92
28935;BME280;16044;52.726;-2.108;2023-05-03T04:45:10;101747.75;;;7.77;92.06
28935;BME280;16044;52.726;-2.108;2023-05-03T04:47:37;101750.47;;;7.77;91.70
28935;BME280;16044;52.726;-2.108;2023-05-03T04:50:04;101755.59;;;7.80;91.67
28935;BME280;16044;52.726;-2.108;2023-05-03T04:52:33;101763.56;;;7.81;91.59
28935;BME280;16044;52.726;-2.108;2023-05-03T04:55:01;101758.91;;;7.84;91.50
28935;BME280;16044;52.726;-2.108;2023-05-03T04:57:29;101753.13;;;7.88;91.16
28935;BME280;16044;52.726;-2.108;2023-05-03T04:59:57;101761.94;;;7.90;91.28
28935;BME280;16044;52.726;-2.108;2023-05-03T05:02:24;101758.84;;;7.95;90.46
28935;BME280;16044;52.726;-2.108;2023-05-03T05:04:52;101760.47;;;7.86;90.82
28935;BME280;16044;52.726;-2.108;2023-05-03T05:07:19;101770.50;;;7.95;90.77
28935;BME280;16044;52.726;-2.108;2023-05-03T05:09:46;101775.78;;;7.97;90.51
28935;BME280;16044;52.726;-2.108;2023-05-03T05:12:13;101773.44;;;8.04;90.35
28935;BME280;16044;52.726;-2.108;2023-05-03T05:14:40;101777.59;;;8.08;89.98
28935;BME280;16044;52.726;-2.108;2023-05-03T05:17:07;101784.16;;;8.26;89.92
28935;BME280;16044;52.726;-2.108;2023-05-03T05:19:34;101775.22;;;8.47;89.76
28935;BME280;16044;52.726;-2.108;2023-05-03T05:22:01;101779.44;;;8.82;88.33
28935;BME280;16044;52.726;-2.108;2023-05-03T05:24:31;101779.44;;;9.12;86.95
28935;BME280;16044;52.726;-2.108;2023-05-03T05:26:58;101782.09;;;9.43;86.10
28935;BME280;16044;52.726;-2.108;2023-05-03T05:29:25;101787.91;;;9.79;85.32
28935;BME280;16044;52.726;-2.108;2023-05-03T05:31:52;101783.81;;;10.14;83.29
28935;BME280;16044;52.726;-2.108;2023-05-03T05:34:19;101777.16;;;10.47;80.89
28935;BME280;16044;52.726;-2.108;2023-05-03T05:36:46;101784.34;;;10.86;80.12
28935;BME280;16044;52.726;-2.108;2023-05-03T05:39:13;101781.38;;;11.17;77.02
28935;BME280;16044;52.726;-2.108;2023-05-03T05:41:40;101780.69;;;11.42;76.07
28935;BME280;16044;52.726;-2.108;2023-05-03T05:44:07;101776.25;;;11.69;74.59
28935;BME280;16044;52.726;-2.108;2023-05-03T05:46:34;101783.38;;;11.98;73.10
28935;BME280;16044;52.726;-2.108;2023-05-03T05:49:01;101780.22;;;12.20;71.61
28935;BME280;16044;52.726;-2.108;2023-05-03T05:51:27;101792.84;;;12.47;70.92
28935;BME280;16044;52.726;-2.108;2023-05-03T05:53:56;101785.06;;;12.53;69.31
28935;BME280;16044;52.726;-2.108;2023-05-03T05:56:24;101774.38;;;12.77;69.19
28935;BME280;16044;52.726;-2.108;2023-05-03T05:58:50;101789.75;;;12.86;68.21
28935;BME280;16044;52.726;-2.108;2023-05-03T06:01:17;101788.94;;;12.94;67.33
28935;BME280;16044;52.726;-2.108;2023-05-03T06:03:44;101785.13;;;12.87;66.47
28935;BME280;16044;52.726;-2.108;2023-05-03T06:06:11;101789.53;;;12.80;66.50
28935;BME280;16044;52.726;-2.108;2023-05-03T06:08:39;101786.69;;;12.63;67.00
28935;BME280;16044;52.726;-2.108;2023-05-03T06:11:05;101787.34;;;12.57;67.38
28935;BME280;16044;52.726;-2.108;2023-05-03T06:13:33;101781.75;;;12.41;67.71
28935;BME280;16044;52.726;-2.108;2023-05-03T06:16:04;101788.44;;;12.28;67.99
28935;BME280;16044;52.726;-2.108;2023-05-03T06:18:31;101790.16;;;12.29;68.09
28935;BME280;16044;52.726;-2.108;2023-05-03T06:20:58;101784.88;;;12.28;68.22
28935;BME280;16044;52.726;-2.108;2023-05-03T06:23:25;101797.22;;;12.40;68.52
28935;BME280;16044;52.726;-2.108;2023-05-03T06:25:53;101794.88;;;12.45;68.31
28935;BME280;16044;52.726;-2.108;2023-05-03T06:28:20;101788.28;;;12.48;67.93
28935;BME280;16044;52.726;-2.108;2023-05-03T06:30:48;101793.13;;;12.62;68.18
28935;BME280;16044;52.726;-2.108;2023-05-03T06:33:16;101790.53;;;12.79;67.78
28935;BME280;16044;52.726;-2.108;2023-05-03T06:35:43;101790.13;;;12.92;67.08
28935;BME280;16044;52.726;-2.108;2023-05-03T06:38:12;101794.22;;;12.96;65.65
28935;BME280;16044;52.726;-2.108;2023-05-03T06:40:39;101802.41;;;12.96;65.25
28935;BME280;16044;52.726;-2.108;2023-05-03T06:43:09;101796.38;;;12.84;65.39
28935;BME280;16044;52.726;-2.108;2023-05-03T06:45:38;101800.47;;;12.88;65.73
28935;BME280;16044;52.726;-2.108;2023-05-03T06:48:08;101802.66;;;12.84;65.22
28935;BME280;16044;52.726;-2.108;2023-05-03T06:50:35;101802.50;;;12.86;65.37
28935;BME280;16044;52.726;-2.108;2023-05-03T06:53:02;101803.22;;;12.96;65.01
28935;BME280;16044;52.726;-2.108;2023-05-03T06:55:29;101799.50;;;12.97;65.33
28935;BME280;16044;52.726;-2.108;2023-05-03T06:57:58;101804.00;;;13.06;65.55
28935;BME280;16044;52.726;-2.108;2023-05-03T07:00:25;101802.50;;;13.12;65.26
28935;BME280;16044;52.726;-2.108;2023-05-03T07:02:53;101799.66;;;13.22;65.24
28935;BME280;16044;52.726;-2.108;2023-05-03T07:05:20;101791.41;;;13.40;64.39
28935;BME280;16044;52.726;-2.108;2023-05-03T07:07:47;101790.59;;;13.48;63.03
28935;BME280;16044;52.726;-2.108;2023-05-03T07:10:14;101781.88;;;13.36;62.77
28935;BME280;16044;52.726;-2.108;2023-05-03T07:12:40;101788.50;;;13.33;62.32
28935;BME280;16044;52.726;-2.108;2023-05-03T07:15:08;101786.47;;;13.35;61.41
28935;BME280;16044;52.726;-2.108;2023-05-03T07:17:35;101781.28;;;13.24;61.90
28935;BME280;16044;52.726;-2.108;2023-05-03T07:20:02;101788.59;;;13.23;62.28
28935;BME280;16044;52.726;-2.108;2023-05-03T07:22:30;101788.59;;;13.23;62.53
28935;BME280;16044;52.726;-2.108;2023-05-03T07:24:58;101785.69;;;13.25;62.66
28935;BME280;16044;52.726;-2.108;2023-05-03T07:27:25;101788.50;;;13.33;61.33
28935;BME280;16044;52.726;-2.108;2023-05-03T07:29:52;101786.16;;;13.38;61.48
28935;BME280;16044;52.726;-2.108;2023-05-03T07:32:20;101784.47;;;13.45;60.93
28935;BME280;16044;52.726;-2.108;2023-05-03T07:34:48;101784.53;;;13.62;60.52
28935;BME280;16044;52.726;-2.108;2023-05-03T07:37:15;101787.47;;;13.69;59.76
28935;BME280;16044;52.726;-2.108;2023-05-03T07:39:42;101776.06;;;13.73;58.71
28935;BME280;16044;52.726;-2.108;2023-05-03T07:42:09;101773.34;;;13.81;58.96
28935;BME280;16044;52.726;-2.108;2023-05-03T07:44:36;101779.47;;;13.83;58.46
28935;BME280;16044;52.726;-2.108;2023-05-03T07:47:03;101767.41;;;13.86;57.80
28935;BME280;16044;52.726;-2.108;2023-05-03T07:49:30;101762.66;;;13.96;57.60
28935;BME280;16044;52.726;-2.108;2023-05-03T07:52:01;101771.19;;;14.10;57.54
28935;BME280;16044;52.726;-2.108;2023-05-03T07:54:28;101765.41;;;14.13;57.65
28935;BME280;16044;52.726;-2.108;2023-05-03T07:56:55;101759.09;;;14.20;55.90
28935;BME280;16044;52.726;-2.108;2023-05-03T07:59:22;101759.94;;;14.21;55.85
28935;BME280;16044;52.726;-2.108;2023-05-03T08:01:49;101754.31;;;14.22;55.11
28935;BME280;16044;52.726;-2.108;2023-05-03T08:04:16;101750.91;;;14.29;55.69
28935;BME280;16044;52.726;-2.108;2023-05-03T08:06:43;101755.19;;;14.39;55.43
28935;BME280;16044;52.726;-2.108;2023-05-03T08:09:11;101754.31;;;14.47;55.51
28935;BME280;16044;52.726;-2.108;2023-05-03T08:11:38;101748.84;;;14.55;54.66
28935;BME280;16044;52.726;-2.108;2023-05-03T08:14:08;101758.09;;;14.62;53.77
28935;BME280;16044;52.726;-2.108;2023-05-03T08:16:35;101752.97;;;14.43;52.60
28935;BME280;16044;52.726;-2.108;2023-05-03T08:19:02;101760.66;;;14.56;52.89
28935;BME280;16044;52.726;-2.108;2023-05-03T08:21:30;101758.09;;;14.71;53.16
28935;BME280;16044;52.726;-2.108;2023-05-03T08:23:59;101755.34;;;14.79;52.96
28935;BME280;16044;52.726;-2.108;2023-05-03T08:26:26;101755.69;;;14.76;52.38
28935;BME280;16044;52.726;-2.108;2023-05-03T08:28:55;101749.22;;;14.77;52.57
28935;BME280;16044;52.726;-2.108;2023-05-03T08:31:22;101751.41;;;14.90;53.01
28935;BME280;16044;52.726;-2.108;2023-05-03T08:33:49;101745.59;;;14.93;53.46
28935;BME280;16044;52.726;-2.108;2023-05-03T08:36:16;101748.09;;;15.11;53.49
28935;BME280;16044;52.726;-2.108;2023-05-03T08:38:43;101740.03;;;15.17;53.74
28935;BME280;16044;52.726;-2.108;2023-05-03T08:41:18;101747.00;;;15.28;53.17
28935;BME280;16044;52.726;-2.108;2023-05-03T08:43:52;101743.38;;;15.36;52.66
28935;BME280;16044;52.726;-2.108;2023-05-03T08:46:20;101740.81;;;15.34;52.59
28935;BME280;16044;52.726;-2.108;2023-05-03T08:48:48;101741.81;;;15.42;52.79
28935;BME280;16044;52.726;-2.108;2023-05-03T08:51:16;101751.81;;;15.57;53.37
28935;BME280;16044;52.726;-2.108;2023-05-03T08:53:44;101737.41;;;15.72;52.99
28935;BME280;16044;52.726;-2.108;2023-05-03T08:56:28;101749.34;;;15.79;52.52
28935;BME280;16044;52.726;-2.108;2023-05-03T08:58:58;101748.38;;;15.95;52.93
28935;BME280;16044;52.726;-2.108;2023-05-03T09:01:34;101748.63;;;16.08;51.98
28935;BME280;16044;52.726;-2.108;2023-05-03T09:04:02;101757.38;;;16.04;51.84
28935;BME280;16044;52.726;-2.108;2023-05-03T09:06:30;101748.38;;;15.95;52.29
28935;BME280;16044;52.726;-2.108;2023-05-03T09:08:59;101745.81;;;15.93;52.14
28935;BME280;16044;52.726;-2.108;2023-05-03T09:11:31;101745.97;;;16.00;52.24
28935;BME280;16044;52.726;-2.108;2023-05-03T09:16:36;101753.25;;;16.08;52.39
28935;BME280;16044;52.726;-2.108;2023-05-03T09:19:06;101741.81;;;16.04;51.70
28935;BME280;16044;52.726;-2.108;2023-05-03T09:21:35;101740.63;;;16.07;52.33
28935;BME280;16044;52.726;-2.108;2023-05-03T09:24:20;101747.28;;;16.04;51.72
28935;BME280;16044;52.726;-2.108;2023-05-03T09:26:48;101742.63;;;16.13;52.02
28935;BME280;16044;52.726;-2.108;2023-05-03T09:29:29;101738.34;;;16.10;51.20
28935;BME280;16044;52.726;-2.108;2023-05-03T09:32:04;101739.50;;;16.16;51.48
28935;BME280;16044;52.726;-2.108;2023-05-03T09:34:32;101734.34;;;16.21;51.92
28935;BME280;16044;52.726;-2.108;2023-05-03T09:37:00;101727.38;;;16.18;51.48
28935;BME280;16044;52.726;-2.108;2023-05-03T09:39:27;101715.44;;;16.11;51.20
28935;BME280;16044;52.726;-2.108;2023-05-03T09:41:55;101735.69;;;16.02;51.09
28935;BME280;16044;52.726;-2.108;2023-05-03T09:44:45;101725.16;;;15.91;50.77
28935;BME280;16044;52.726;-2.108;2023-05-03T09:47:19;101718.47;;;15.93;51.53
28935;BME280;16044;52.726;-2.108;2023-05-03T09:49:51;101721.53;;;15.98;50.91
28935;BME280;16044;52.726;-2.108;2023-05-03T09:52:18;101717.28;;;15.96;50.49
28935;BME280;16044;52.726;-2.108;2023-05-03T09:54:47;101715.22;;;15.98;51.35
28935;BME280;16044;52.726;-2.108;2023-05-03T09:57:15;101718.47;;;15.93;50.36
28935;BME280;16044;52.726;-2.108;2023-05-03T09:59:43;101710.00;;;15.88;50.35
28935;BME280;16044;52.726;-2.108;2023-05-03T10:02:10;101722.09;;;15.94;50.85
28935;BME280;16044;52.726;-2.108;2023-05-03T10:04:42;101719.88;;;15.89;50.63
28935;BME280;16044;52.726;-2.108;2023-05-03T10:07:16;101720.06;;;15.88;50.34
28935;BME280;16044;52.726;-2.108;2023-05-03T10:09:46;101710.81;;;15.89;50.48
28935;BME280;16044;52.726;-2.108;2023-05-03T10:12:14;101712.00;;;15.94;51.18
28935;BME280;16044;52.726;-2.108;2023-05-03T10:14:45;101707.09;;;16.05;50.59
28935;BME280;16044;52.726;-2.108;2023-05-03T10:17:18;101712.81;;;16.18;50.95
28935;BME280;16044;52.726;-2.108;2023-05-03T10:20:43;101708.63;;;16.30;50.78
28935;BME280;16044;52.726;-2.108;2023-05-03T10:23:13;101709.69;;;16.44;50.80
28935;BME280;16044;52.726;-2.108;2023-05-03T10:28:38;101703.09;;;16.53;49.24
28935;BME280;16044;52.726;-2.108;2023-05-03T10:31:05;101698.84;;;16.51;49.11
28935;BME280;16044;52.726;-2.108;2023-05-03T10:33:33;101700.34;;;16.53;49.24
28935;BME280;16044;52.726;-2.108;2023-05-03T10:36:07;101700.66;;;16.59;48.40
28935;BME280;16044;52.726;-2.108;2023-05-03T10:38:36;101700.56;;;16.67;48.48
28935;BME280;16044;52.726;-2.108;2023-05-03T10:41:03;101691.63;;;16.73;48.46
28935;BME280;16044;52.726;-2.108;2023-05-03T10:46:03;101688.88;;;16.88;48.39
28935;BME280;16044;52.726;-2.108;2023-05-03T10:48:33;101677.38;;;16.92;48.48
28935;BME280;16044;52.726;-2.108;2023-05-03T10:53:56;101672.94;;;16.91;48.68
28935;BME280;16044;52.726;-2.108;2023-05-03T10:56:23;101665.19;;;16.95;48.51
28935;BME280;16044;52.726;-2.108;2023-05-03T10:58:50;101669.25;;;16.99;48.00
28935;BME280;16044;52.726;-2.108;2023-05-03T11:01:22;101665.47;;;17.00;48.66
28935;BME280;16044;52.726;-2.108;2023-05-03T11:03:51;101652.72;;;16.92;47.26
28935;BME280;16044;52.726;-2.108;2023-05-03T11:06:41;101658.88;;;16.94;47.26
28935;BME280;16044;52.726;-2.108;2023-05-03T11:09:08;101653.38;;;16.94;46.65
28935;BME280;16044;52.726;-2.108;2023-05-03T11:11:39;101651.69;;;16.93;46.60
28935;BME280;16044;52.726;-2.108;2023-05-03T11:14:07;101650.66;;;16.94;46.88
28935;BME280;16044;52.726;-2.108;2023-05-03T11:16:35;101634.88;;;16.97;46.81
28935;BME280;16044;52.726;-2.108;2023-05-03T11:19:06;101647.78;;;17.03;46.29
28935;BME280;16044;52.726;-2.108;2023-05-03T11:21:33;101633.91;;;17.04;45.57
28935;BME280;16044;52.726;-2.108;2023-05-03T11:24:00;101644.41;;;17.01;45.76
28935;BME280;16044;52.726;-2.108;2023-05-03T11:26:27;101626.38;;;16.91;45.38
28935;BME280;16044;52.726;-2.108;2023-05-03T11:28:54;101616.94;;;16.94;45.72
28935;BME280;16044;52.726;-2.108;2023-05-03T11:31:21;101625.63;;;16.98;45.03
28935;BME280;16044;52.726;-2.108;2023-05-03T11:33:49;101624.44;;;17.07;45.31
28935;BME280;16044;52.726;-2.108;2023-05-03T11:36:16;101620.41;;;17.03;44.77
28935;BME280;16044;52.726;-2.108;2023-05-03T11:38:44;101621.84;;;16.99;44.31
28935;BME280;16044;52.726;-2.108;2023-05-03T11:41:20;101612.69;;;16.91;44.09
28935;BME280;16044;52.726;-2.108;2023-05-03T11:43:48;101603.44;;;16.92;43.68
28935;BME280;16044;52.726;-2.108;2023-05-03T11:46:36;101596.66;;;16.88;44.66
28935;BME280;16044;52.726;-2.108;2023-05-03T11:49:04;101611.00;;;16.90;44.57
28935;BME280;16044;52.726;-2.108;2023-05-03T11:51:31;101604.47;;;16.91;44.27
28935;BME280;16044;52.726;-2.108;2023-05-03T11:53:59;101599.75;;;16.85;43.42
28935;BME280;16044;52.726;-2.108;2023-05-03T11:56:49;101594.56;;;16.90;44.10
28935;BME280;16044;52.726;-2.108;2023-05-03T11:59:33;101588.63;;;16.87;43.54
28935;BME280;16044;52.726;-2.108;2023-05-03T12:02:03;101598.44;;;16.96;43.64
28935;BME280;16044;52.726;-2.108;2023-05-03T12:04:32;101585.19;;;17.00;44.09
28935;BME280;16044;52.726;-2.108;2023-05-03T12:06:59;101601.13;;;17.11;43.46
28935;BME280;16044;52.726;-2.108;2023-05-03T12:09:28;101592.44;;;17.07;42.92
28935;BME280;16044;52.726;-2.108;2023-05-03T12:11:57;101583.66;;;17.12;42.92
28935;BME280;16044;52.726;-2.108;2023-05-03T12:14:27;101582.47;;;17.21;42.31
28935;BME280;16044;52.726;-2.108;2023-05-03T12:16:55;101589.47;;;17.24;42.45
28935;BME280;16044;52.726;-2.108;2023-05-03T12:19:27;101580.22;;;17.25;42.63
28935;BME280;16044;52.726;-2.108;2023-05-03T12:21:59;101576.69;;;17.31;42.73
28935;BME280;16044;52.726;-2.108;2023-05-03T12:24:29;101571.00;;;17.32;43.16
28935;BME280;16044;52.726;-2.108;2023-05-03T12:26:59;101577.78;;;17.37;42.90
28935;BME280;16044;52.726;-2.108;2023-05-03T12:29:28;101574.41;;;17.34;42.17
28935;BME280;16044;52.726;-2.108;2023-05-03T12:32:00;101570.81;;;17.34;42.53
28935;BME280;16044;52.726;-2.108;2023-05-03T12:34:30;101558.34;;;17.31;44.02
28935;BME280;16044;52.726;-2.108;2023-05-03T12:37:01;101569.19;;;17.40;44.17
28935;BME280;16044;52.726;-2.108;2023-05-03T12:39:31;101554.84;;;17.38;44.04
28935;BME280;16044;52.726;-2.108;2023-05-03T12:42:03;101537.34;;;17.39;44.15
28935;BME280;16044;52.726;-2.108;2023-05-03T12:44:34;101553.13;;;17.37;43.56
28935;BME280;16044;52.726;-2.108;2023-05-03T12:47:02;101552.09;;;17.38;43.65
28935;BME280;16044;52.726;-2.108;2023-05-03T12:49:30;101557.59;;;17.38;44.81
28935;BME280;16044;52.726;-2.108;2023-05-03T12:51:57;101549.56;;;17.36;44.16
28935;BME280;16044;52.726;-2.108;2023-05-03T12:54:46;101539.03;;;17.40;44.67
28935;BME280;16044;52.726;-2.108;2023-05-03T12:57:15;101546.03;;;17.42;44.27
28935;BME280;16044;52.726;-2.108;2023-05-03T12:59:49;101542.91;;;17.45;43.34
28935;BME280;16044;52.726;-2.108;2023-05-03T13:02:27;101537.22;;;17.47;43.83
28935;BME280;16044;52.726;-2.108;2023-05-03T13:04:57;101529.22;;;17.52;44.22
28935;BME280;16044;52.726;-2.108;2023-05-03T13:07:27;101526.50;;;17.52;44.75
28935;BME280;16044;52.726;-2.108;2023-05-03T13:09:57;101529.50;;;17.57;45.34
28935;BME280;16044;52.726;-2.108;2023-05-03T13:12:27;101518.16;;;17.60;45.41